Time;durP1;ratioP1;P1;durP2;ratioP2;P2;SDS_P1;SDS_P2;PMS_P1;PMS_P2;Temp;Humidity;BMP_temperature;BMP_pressure;BME280_temperature;BME280_humidity;BME280_pressure;Samples;Min_cycle;Max_cycle;Signal;HPM_P1;HPM_P2
2022/09/14 00:01:24;;;;;;;;;;;;;;;15.78;82.43;99385.56;89187;1263;98929;-60
2022/09/14 00:03:31;;;;;;;;;;;;;;;15.73;82.59;99387.73;89126;1264;90642;-60
2022/09/14 00:05:39;;;;;;;;;;;;;;;15.70;82.49;99386.63;89126;1264;94132;-61
2022/09/14 00:07:47;;;;;;;;;;;;;;;15.65;82.61;99388.51;89118;1263;81966;-61
2022/09/14 00:09:55;;;;;;;;;;;;;;;15.65;82.71;99392.15;89149;1263;81436;-62
2022/09/14 00:12:06;;;;;;;;;;;;;;;15.63;82.71;99394.14;89114;1263;98187;-63
2022/09/14 00:14:13;;;;;;;;;;;;;;;15.61;82.68;99398.08;89168;1263;89111;-64
2022/09/14 00:16:25;;;;;;;;;;;;;;;15.61;82.64;99393.39;89097;1263;95033;-63
2022/09/14 00:18:33;;;;;;;;;;;;;;;15.58;82.49;99394.27;89114;1263;81808;-62
2022/09/14 00:20:42;;;;;;;;;;;;;;;15.48;82.40;99390.21;89123;1262;81993;-62
2022/09/14 00:22:50;;;;;;;;;;;;;;;15.40;82.35;99383.63;89188;1263;98158;-62
2022/09/14 00:25:00;;;;;;;;;;;;;;;15.31;82.39;99385.66;89123;1263;89611;-61
2022/09/14 00:27:10;;;;;;;;;;;;;;;15.24;82.30;99384.06;89140;1263;94183;-61
2022/09/14 00:29:19;;;;;;;;;;;;;;;15.18;82.21;99380.61;89165;1263;82146;-61
2022/09/14 00:31:29;;;;;;;;;;;;;;;15.08;82.29;99377.39;89159;1263;82943;-61
2022/09/14 00:33:42;;;;;;;;;;;;;;;14.98;82.30;99377.04;89182;1263;98329;-61
2022/09/14 00:35:49;;;;;;;;;;;;;;;14.88;82.38;99375.67;89231;1263;87404;-61
2022/09/14 00:37:56;;;;;;;;;;;;;;;14.79;82.36;99373.61;89191;1263;95255;-61
2022/09/14 00:40:04;;;;;;;;;;;;;;;14.71;82.32;99374.98;89194;1263;82586;-61
2022/09/14 00:42:18;;;;;;;;;;;;;;;14.65;82.30;99379.91;89206;1262;82691;-61
2022/09/14 00:45:04;;;;;;;;;;;;;;;14.56;82.44;99379.92;89254;1260;98844;-62
2022/09/14 00:47:13;;;;;;;;;;;;;;;14.46;82.64;99377.70;89454;1260;86194;-61
2022/09/14 00:49:22;;;;;;;;;;;;;;;14.45;82.82;99376.31;89520;1260;94490;-62
2022/09/14 00:51:32;;;;;;;;;;;;;;;14.44;82.77;99374.33;89488;1260;80303;-62
2022/09/14 00:53:39;;;;;;;;;;;;;;;14.40;82.79;99376.37;89487;1260;82759;-61
2022/09/14 00:55:47;;;;;;;;;;;;;;;14.36;82.88;99379.70;89473;1260;98392;-61
2022/09/14 00:57:56;;;;;;;;;;;;;;;14.38;83.09;99385.95;89480;1260;86300;-61
2022/09/14 01:00:09;;;;;;;;;;;;;;;14.42;83.27;99386.03;89477;1260;92651;-61
2022/09/14 01:02:18;;;;;;;;;;;;;;;14.47;83.37;99385.93;89534;1260;79859;-61
2022/09/14 01:04:26;;;;;;;;;;;;;;;14.52;83.54;99386.41;89483;1260;83165;-61
2022/09/14 01:06:40;;;;;;;;;;;;;;;14.57;83.58;99391.56;89486;1260;99482;-61
2022/09/14 01:08:58;;;;;;;;;;;;;;;14.60;83.49;99390.23;89517;1260;87069;-62
2022/09/14 01:11:18;;;;;;;;;;;;;;;14.59;83.67;99384.50;89197;1262;95637;-62
2022/09/14 01:13:37;;;;;;;;;;;;;;;14.62;83.70;99386.73;89498;1260;81919;-62
2022/09/14 01:15:56;;;;;;;;;;;;;;;14.63;83.70;99380.83;89549;1260;82120;-61
2022/09/14 01:18:15;;;;;;;;;;;;;;;14.65;83.76;99380.98;89561;1260;97143;-61
2022/09/14 01:20:30;;;;;;;;;;;;;;;14.66;83.78;99374.92;89530;1260;88881;-61
2022/09/14 01:22:43;;;;;;;;;;;;;;;14.64;83.75;99372.82;89494;1260;95581;-62
2022/09/14 01:25:06;;;;;;;;;;;;;;;14.66;83.79;99373.18;89522;1260;82118;-61
2022/09/14 01:27:32;;;;;;;;;;;;;;;14.67;83.96;99364.58;89537;1260;80232;-62
2022/09/14 01:29:42;;;;;;;;;;;;;;;14.69;83.86;99368.34;89491;1260;99133;-61
2022/09/14 01:31:55;;;;;;;;;;;;;;;14.69;83.88;99365.19;89520;1260;88406;-59
2022/09/14 01:34:13;;;;;;;;;;;;;;;14.67;83.80;99360.64;89546;1260;94328;-61
2022/09/14 01:36:21;;;;;;;;;;;;;;;14.60;83.85;99358.38;89493;1260;79806;-62
2022/09/14 01:38:33;;;;;;;;;;;;;;;14.58;84.08;99358.94;89517;1260;82116;-61
2022/09/14 01:40:43;;;;;;;;;;;;;;;14.59;84.04;99360.20;89462;1260;98467;-60
2022/09/14 01:42:55;;;;;;;;;;;;;;;14.56;83.98;99361.61;89508;1260;89126;-60
2022/09/14 01:45:07;;;;;;;;;;;;;;;14.49;83.99;99358.15;89533;1260;94540;-61
2022/09/14 01:47:22;;;;;;;;;;;;;;;14.48;84.03;99353.50;89494;1260;82131;-61
2022/09/14 01:49:38;;;;;;;;;;;;;;;14.47;84.15;99346.85;89512;1260;81336;-60
2022/09/14 01:51:49;;;;;;;;;;;;;;;14.47;84.20;99348.23;89535;1260;99961;-60
2022/09/14 01:54:03;;;;;;;;;;;;;;;14.48;84.31;99348.39;89546;1260;88568;-60
2022/09/14 01:56:19;;;;;;;;;;;;;;;14.49;84.26;99354.48;89530;1260;95683;-61
2022/09/14 01:58:35;;;;;;;;;;;;;;;14.49;84.34;99356.13;89515;1260;82083;-60
2022/09/14 02:00:44;;;;;;;;;;;;;;;14.50;84.51;99349.78;89535;1260;82824;-61
2022/09/14 02:02:55;;;;;;;;;;;;;;;14.54;84.54;99347.98;89471;1260;100295;-60
2022/09/14 02:05:07;;;;;;;;;;;;;;;14.60;84.75;99345.27;89506;1260;88501;-60
2022/09/14 02:07:14;;;;;;;;;;;;;;;14.66;84.76;99341.48;89529;1260;94977;-60
2022/09/14 02:09:25;;;;;;;;;;;;;;;14.67;84.70;99342.14;89520;1260;81542;-61
2022/09/14 02:11:34;;;;;;;;;;;;;;;14.68;84.82;99338.87;89517;1260;82850;-60
2022/09/14 02:13:44;;;;;;;;;;;;;;;14.70;84.71;99340.73;89495;1260;97971;-60
2022/09/14 02:15:51;;;;;;;;;;;;;;;14.70;84.76;99336.94;89494;1260;89189;-59
2022/09/14 02:17:59;;;;;;;;;;;;;;;14.73;84.92;99340.05;89459;1260;95103;-58
2022/09/14 02:20:14;;;;;;;;;;;;;;;14.75;84.90;99336.27;89499;1260;81499;-60
2022/09/14 02:22:21;;;;;;;;;;;;;;;14.80;85.03;99336.09;89388;1260;80293;-59
2022/09/14 02:24:29;;;;;;;;;;;;;;;14.82;85.00;99337.27;89331;1260;99815;-60
2022/09/14 02:26:37;;;;;;;;;;;;;;;14.82;85.06;99343.91;89160;1262;91069;-60
2022/09/14 02:28:45;;;;;;;;;;;;;;;14.84;85.13;99345.42;89172;1262;95398;-60
2022/09/14 02:31:01;;;;;;;;;;;;;;;14.86;85.11;99343.84;89112;1263;82293;-60
2022/09/14 02:33:23;;;;;;;;;;;;;;;14.88;85.26;99346.21;89176;1263;81879;-60
2022/09/14 02:35:36;;;;;;;;;;;;;;;14.89;85.34;99346.61;89174;1262;99897;-61
2022/09/14 02:37:48;;;;;;;;;;;;;;;14.90;85.41;99344.73;89201;1263;88006;-60
2022/09/14 02:40:01;;;;;;;;;;;;;;;14.94;85.28;99350.45;89238;1263;93767;-60
2022/09/14 02:42:17;;;;;;;;;;;;;;;14.94;85.31;99345.57;89205;1261;82355;-60
2022/09/14 02:44:29;;;;;;;;;;;;;;;14.96;85.51;99344.19;89250;1263;82084;-60
2022/09/14 02:46:42;;;;;;;;;;;;;;;15.00;85.51;99344.64;89259;1263;99410;-60
2022/09/14 02:48:55;;;;;;;;;;;;;;;15.03;85.60;99337.85;89234;1262;87731;-61
2022/09/14 02:51:07;;;;;;;;;;;;;;;15.05;85.48;99342.81;89248;1263;95199;-60
2022/09/14 02:53:17;;;;;;;;;;;;;;;15.02;85.51;99343.02;89188;1263;80798;-61
2022/09/14 02:55:29;;;;;;;;;;;;;;;15.02;85.57;99346.80;89198;1262;83047;-61
2022/09/14 02:57:50;;;;;;;;;;;;;;;15.03;85.63;99343.32;89235;1262;99399;-60
2022/09/14 02:59:57;;;;;;;;;;;;;;;15.02;85.59;99337.57;89212;1263;88696;-60
2022/09/14 03:02:07;;;;;;;;;;;;;;;15.07;85.66;99340.52;89163;1263;94418;-60
2022/09/14 03:04:14;;;;;;;;;;;;;;;15.07;85.64;99337.87;89239;1263;81766;-60
2022/09/14 03:06:22;;;;;;;;;;;;;;;15.08;85.61;99337.84;89174;1263;82389;-60
2022/09/14 03:08:29;;;;;;;;;;;;;;;15.06;85.54;99338.32;89154;1263;99337;-60
2022/09/14 03:10:37;;;;;;;;;;;;;;;15.03;85.55;99341.69;89201;1262;89375;-60
2022/09/14 03:12:45;;;;;;;;;;;;;;;15.01;85.60;99340.02;89163;1262;95629;-60
2022/09/14 03:14:52;;;;;;;;;;;;;;;15.02;85.58;99341.42;89193;1262;81885;-61
2022/09/14 03:16:59;;;;;;;;;;;;;;;15.05;85.58;99339.17;89178;1263;82865;-61
2022/09/14 03:19:06;;;;;;;;;;;;;;;15.03;85.64;99342.10;89185;1262;99301;-62
2022/09/14 03:21:17;;;;;;;;;;;;;;;15.04;85.68;99340.42;89188;1262;87690;-62
2022/09/14 03:23:27;;;;;;;;;;;;;;;15.06;85.81;99336.80;89207;1262;95260;-60
2022/09/14 03:25:38;;;;;;;;;;;;;;;15.09;85.83;99336.91;89200;1262;81475;-60
2022/09/14 03:27:50;;;;;;;;;;;;;;;15.08;85.84;99339.73;89226;1262;82774;-61
2022/09/14 03:30:02;;;;;;;;;;;;;;;15.05;85.80;99341.42;89241;1262;99076;-60
2022/09/14 03:32:11;;;;;;;;;;;;;;;15.02;85.78;99335.23;89235;1261;89896;-60
2022/09/14 03:34:21;;;;;;;;;;;;;;;15.00;85.85;99335.65;89189;1262;95386;-59
2022/09/14 03:36:30;;;;;;;;;;;;;;;14.98;85.88;99330.63;89253;1262;81869;-60
2022/09/14 03:38:42;;;;;;;;;;;;;;;15.00;86.11;99318.25;89243;1262;81636;-61
2022/09/14 03:40:50;;;;;;;;;;;;;;;14.98;85.97;99311.04;89218;1262;99300;-62
2022/09/14 03:42:59;;;;;;;;;;;;;;;14.91;85.86;99306.83;89241;1263;87604;-61
2022/09/14 03:45:09;;;;;;;;;;;;;;;14.86;85.88;99317.55;89189;1263;95069;-60
2022/09/14 03:47:17;;;;;;;;;;;;;;;14.88;86.03;99322.05;89173;1262;81098;-60
2022/09/14 03:49:26;;;;;;;;;;;;;;;14.87;86.15;99319.20;89208;1263;82965;-60
2022/09/14 03:51:35;;;;;;;;;;;;;;;14.80;86.01;99325.44;89167;1262;97576;-61
2022/09/14 03:53:45;;;;;;;;;;;;;;;14.74;86.01;99326.48;89193;1262;86774;-59
2022/09/14 03:55:53;;;;;;;;;;;;;;;14.71;86.00;99326.09;89197;1261;94006;-61
2022/09/14 03:58:00;;;;;;;;;;;;;;;14.69;86.20;99324.15;89206;1262;82169;-61
2022/09/14 04:00:09;;;;;;;;;;;;;;;14.71;86.20;99331.02;89258;1262;82289;-60
2022/09/14 04:02:19;;;;;;;;;;;;;;;14.69;86.07;99330.90;89197;1263;99275;-60
2022/09/14 04:04:29;;;;;;;;;;;;;;;14.65;86.09;99330.91;89204;1263;88966;-61
2022/09/14 04:06:37;;;;;;;;;;;;;;;14.61;86.12;99322.73;89209;1262;94557;-61
2022/09/14 04:08:45;;;;;;;;;;;;;;;14.62;86.27;99322.63;89217;1262;82596;-60
2022/09/14 04:10:53;;;;;;;;;;;;;;;14.61;86.24;99318.70;89149;1264;82845;-62
2022/09/14 04:13:01;;;;;;;;;;;;;;;14.60;86.31;99323.36;89242;1262;99602;-62
2022/09/14 04:15:13;;;;;;;;;;;;;;;14.61;86.43;99319.90;89247;1263;89325;-60
2022/09/14 04:17:24;;;;;;;;;;;;;;;14.63;86.39;99318.27;89201;1262;96793;-59
2022/09/14 04:19:36;;;;;;;;;;;;;;;14.68;86.49;99317.92;89231;1262;82149;-60
2022/09/14 04:21:46;;;;;;;;;;;;;;;14.71;86.43;99315.55;89211;1262;82017;-61
2022/09/14 04:23:57;;;;;;;;;;;;;;;14.69;86.53;99320.19;89181;1263;100063;-61
2022/09/14 04:26:09;;;;;;;;;;;;;;;14.71;86.65;99314.83;89196;1263;88266;-61
2022/09/14 04:28:16;;;;;;;;;;;;;;;14.73;86.60;99311.49;89089;1264;94754;-60
2022/09/14 04:30:25;;;;;;;;;;;;;;;14.71;86.65;99308.42;89173;1263;81691;-60
2022/09/14 04:32:32;;;;;;;;;;;;;;;14.72;86.62;99307.45;89225;1262;82948;-59
2022/09/14 04:34:39;;;;;;;;;;;;;;;14.72;86.61;99310.50;89181;1262;98842;-60
2022/09/14 04:36:46;;;;;;;;;;;;;;;14.76;86.65;99308.90;89187;1263;88857;-59
2022/09/14 04:38:57;;;;;;;;;;;;;;;14.77;86.65;99308.89;89092;1264;96637;-61
2022/09/14 04:41:08;;;;;;;;;;;;;;;14.77;86.58;99314.29;89191;1263;81796;-60
2022/09/14 04:43:15;;;;;;;;;;;;;;;14.84;86.57;99316.31;88842;1263;482720;-61
2022/09/14 04:45:22;;;;;;;;;;;;;;;14.86;86.52;99315.02;89162;1261;99299;-61
2022/09/14 04:47:31;;;;;;;;;;;;;;;14.90;86.42;99315.95;89224;1261;86321;-62
2022/09/14 04:49:38;;;;;;;;;;;;;;;14.95;86.54;99311.05;89193;1262;94991;-60
2022/09/14 04:51:45;;;;;;;;;;;;;;;15.00;86.56;99310.70;89182;1263;81278;-60
2022/09/14 04:53:55;;;;;;;;;;;;;;;15.07;86.54;99309.90;89231;1263;82976;-62
2022/09/14 04:56:04;;;;;;;;;;;;;;;15.09;86.55;99308.04;89190;1262;99786;-61
2022/09/14 04:58:16;;;;;;;;;;;;;;;15.17;86.45;99309.55;89226;1263;89594;-62
2022/09/14 05:00:23;;;;;;;;;;;;;;;15.21;86.62;99310.64;89239;1262;93398;-61
2022/09/14 05:02:32;;;;;;;;;;;;;;;15.28;86.43;99309.56;89277;1262;81769;-60
2022/09/14 05:04:41;;;;;;;;;;;;;;;15.30;86.39;99313.85;89277;1262;81423;-61
2022/09/14 05:06:49;;;;;;;;;;;;;;;15.33;86.38;99311.45;89267;1263;99972;-60
2022/09/14 05:08:59;;;;;;;;;;;;;;;15.38;86.42;99310.81;89126;1264;88896;-60
2022/09/14 05:11:06;;;;;;;;;;;;;;;15.49;86.27;99318.92;89257;1262;94572;-59
2022/09/14 05:13:15;;;;;;;;;;;;;;;15.51;86.20;99319.77;89201;1262;79651;-60
2022/09/14 05:15:22;;;;;;;;;;;;;;;15.44;86.24;99316.86;89232;1262;82356;-62
2022/09/14 05:17:33;;;;;;;;;;;;;;;15.47;86.21;99316.51;89220;1262;98261;-62
2022/09/14 05:19:41;;;;;;;;;;;;;;;15.55;86.23;99320.55;89242;1262;89030;-62
2022/09/14 05:21:49;;;;;;;;;;;;;;;15.59;86.17;99314.63;89248;1262;93579;-63
2022/09/14 05:23:58;;;;;;;;;;;;;;;15.68;86.28;99312.42;89253;1262;81706;-61
2022/09/14 05:26:06;;;;;;;;;;;;;;;15.78;86.29;99308.39;89198;1263;79899;-60
2022/09/14 05:28:17;;;;;;;;;;;;;;;15.78;86.21;99306.65;89249;1262;99429;-61
2022/09/14 05:30:26;;;;;;;;;;;;;;;15.76;86.25;99302.86;89169;1262;88269;-60
2022/09/14 05:32:40;;;;;;;;;;;;;;;15.90;86.26;99305.46;89185;1262;94907;-60
2022/09/14 05:34:52;;;;;;;;;;;;;;;16.15;86.12;99300.75;89170;1263;81586;-60
2022/09/14 05:36:59;;;;;;;;;;;;;;;16.30;85.80;99306.84;89220;1262;83217;-60
2022/09/14 05:39:11;;;;;;;;;;;;;;;16.39;85.56;99306.02;89181;1262;99523;-58
2022/09/14 05:41:18;;;;;;;;;;;;;;;16.57;85.46;99311.33;89236;1262;89034;-60
2022/09/14 05:43:30;;;;;;;;;;;;;;;16.63;85.47;99310.22;89237;1262;94250;-60
2022/09/14 05:45:37;;;;;;;;;;;;;;;16.55;85.39;99313.50;89189;1261;82261;-61
2022/09/14 05:47:44;;;;;;;;;;;;;;;16.51;85.42;99313.36;89229;1262;81217;-60
2022/09/14 05:49:51;;;;;;;;;;;;;;;16.49;85.36;99308.98;89238;1262;99903;-59
2022/09/14 05:51:58;;;;;;;;;;;;;;;16.45;85.20;99310.90;89269;1262;87165;-59
2022/09/14 05:54:10;;;;;;;;;;;;;;;16.40;85.27;99307.08;89283;1262;95197;-60
2022/09/14 05:56:19;;;;;;;;;;;;;;;16.35;85.28;99310.77;89268;1262;81880;-62
2022/09/14 05:58:28;;;;;;;;;;;;;;;16.35;85.31;99310.13;89315;1262;83268;-60
2022/09/14 06:00:39;;;;;;;;;;;;;;;16.40;85.23;99306.09;89276;1262;99845;-60
2022/09/14 06:02:49;;;;;;;;;;;;;;;16.41;85.32;99307.08;89286;1262;88943;-60
2022/09/14 06:05:01;;;;;;;;;;;;;;;16.35;85.43;99304.16;89217;1263;94790;-60
2022/09/14 06:07:09;;;;;;;;;;;;;;;16.37;85.27;99301.98;89187;1262;81741;-60
2022/09/14 06:09:21;;;;;;;;;;;;;;;16.33;85.29;99301.42;89237;1263;82521;-59
2022/09/14 06:11:31;;;;;;;;;;;;;;;16.30;85.30;99304.31;89201;1263;99738;-60
2022/09/14 06:13:38;;;;;;;;;;;;;;;16.22;85.34;99308.42;89260;1262;87983;-61
2022/09/14 06:15:49;;;;;;;;;;;;;;;16.10;85.50;99309.45;89193;1262;94442;-59
2022/09/14 06:18:00;;;;;;;;;;;;;;;16.14;85.46;99315.55;89242;1262;80238;-60
2022/09/14 06:20:10;;;;;;;;;;;;;;;16.11;85.45;99312.73;89280;1263;82588;-61
2022/09/14 06:22:22;;;;;;;;;;;;;;;16.10;85.47;99318.51;89224;1262;96707;-61
2022/09/14 06:24:30;;;;;;;;;;;;;;;16.11;85.47;99329.30;89268;1262;88625;-59
2022/09/14 06:26:39;;;;;;;;;;;;;;;16.12;85.27;99331.60;89225;1262;94911;-59
2022/09/14 06:28:49;;;;;;;;;;;;;;;16.13;85.20;99331.23;89248;1262;82435;-58
2022/09/14 06:30:57;;;;;;;;;;;;;;;16.11;85.31;99330.98;89254;1263;82957;-60
2022/09/14 06:33:07;;;;;;;;;;;;;;;16.06;85.58;99328.64;89287;1261;98206;-61
2022/09/14 06:35:14;;;;;;;;;;;;;;;16.09;85.45;99329.27;89296;1262;89090;-61
2022/09/14 06:37:21;;;;;;;;;;;;;;;16.10;85.53;99331.25;89272;1262;94461;-61
2022/09/14 06:39:31;;;;;;;;;;;;;;;16.14;85.62;99335.98;89270;1261;81547;-61
2022/09/14 06:41:38;;;;;;;;;;;;;;;16.17;85.59;99330.73;89261;1262;82687;-61
2022/09/14 06:43:46;;;;;;;;;;;;;;;16.21;85.51;99328.48;89282;1262;98987;-60
2022/09/14 06:46:04;;;;;;;;;;;;;;;16.27;85.53;99330.94;89089;1264;87706;-60
2022/09/14 06:48:15;;;;;;;;;;;;;;;16.28;85.33;99336.29;89080;1264;94828;-63
2022/09/14 06:50:23;;;;;;;;;;;;;;;16.28;85.29;99339.67;89037;1264;80823;-62
2022/09/14 06:52:30;;;;;;;;;;;;;;;16.24;85.24;99341.73;89086;1264;83349;-60
2022/09/14 06:54:37;;;;;;;;;;;;;;;16.27;85.17;99342.86;89062;1264;100328;-61
2022/09/14 06:56:50;;;;;;;;;;;;;;;16.29;85.06;99341.98;89078;1264;87142;-61
2022/09/14 06:59:01;;;;;;;;;;;;;;;16.29;85.17;99344.05;89119;1264;94591;-58
2022/09/14 07:01:19;;;;;;;;;;;;;;;16.37;85.19;99342.52;89042;1264;81506;-61
2022/09/14 07:03:37;;;;;;;;;;;;;;;16.53;85.30;99342.85;89076;1264;81316;-60
2022/09/14 07:05:44;;;;;;;;;;;;;;;16.79;85.37;99343.14;89059;1264;101890;-61
2022/09/14 07:07:56;;;;;;;;;;;;;;;17.02;85.46;99344.81;89080;1264;89255;-61
2022/09/14 07:10:04;;;;;;;;;;;;;;;17.24;85.09;99346.06;89080;1264;93594;-62
2022/09/14 07:12:11;;;;;;;;;;;;;;;17.39;85.01;99350.10;89043;1264;82156;-62
2022/09/14 07:14:20;;;;;;;;;;;;;;;17.76;85.06;99349.45;89085;1264;81543;-61
2022/09/14 07:16:29;;;;;;;;;;;;;;;18.18;84.91;99353.75;89105;1264;100230;-62
2022/09/14 07:18:43;;;;;;;;;;;;;;;18.56;84.44;99348.89;89055;1264;87431;-60
2022/09/14 07:20:52;;;;;;;;;;;;;;;18.91;84.22;99352.42;89047;1264;93779;-62
2022/09/14 07:22:59;;;;;;;;;;;;;;;19.10;83.77;99356.14;89058;1264;80049;-62
2022/09/14 07:25:12;;;;;;;;;;;;;;;19.19;83.20;99359.23;89119;1264;82791;-62
2022/09/14 07:27:25;;;;;;;;;;;;;;;19.30;82.91;99359.58;89133;1264;99876;-62
2022/09/14 07:29:39;;;;;;;;;;;;;;;19.37;82.51;99362.14;89141;1264;88516;-61
2022/09/14 07:31:47;;;;;;;;;;;;;;;19.49;82.25;99359.87;89089;1264;94978;-61
2022/09/14 07:33:56;;;;;;;;;;;;;;;20.02;82.37;99356.01;89079;1264;80276;-60
2022/09/14 07:36:11;;;;;;;;;;;;;;;20.48;81.43;99359.63;89017;1264;83003;-62
2022/09/14 07:38:18;;;;;;;;;;;;;;;20.39;80.23;99358.77;89077;1264;99298;-60
2022/09/14 07:40:27;;;;;;;;;;;;;;;20.11;79.88;99359.78;89076;1264;88439;-59
2022/09/14 07:42:34;;;;;;;;;;;;;;;19.82;79.78;99361.72;89014;1264;95707;-61
2022/09/14 07:44:44;;;;;;;;;;;;;;;19.82;79.59;99358.34;89088;1263;78969;-60
2022/09/14 07:46:51;;;;;;;;;;;;;;;19.93;79.40;99353.78;89144;1262;82747;-61
2022/09/14 07:49:00;;;;;;;;;;;;;;;20.11;79.15;99356.39;89130;1263;99520;-60
2022/09/14 07:51:10;;;;;;;;;;;;;;;20.63;79.52;99346.61;89070;1264;88664;-60
2022/09/14 07:53:19;;;;;;;;;;;;;;;22.14;79.05;99345.43;89299;1261;94257;-61
2022/09/14 07:55:26;;;;;;;;;;;;;;;23.58;77.41;99339.43;89262;1262;81007;-61
2022/09/14 07:57:33;;;;;;;;;;;;;;;24.62;75.85;99334.29;89264;1263;81784;-60
2022/09/14 07:59:45;;;;;;;;;;;;;;;24.60;73.73;99336.97;89299;1262;99578;-61
2022/09/14 08:01:52;;;;;;;;;;;;;;;25.18;73.94;99340.52;89287;1263;87357;-61
2022/09/14 08:04:05;;;;;;;;;;;;;;;26.09;71.84;99342.14;89281;1262;95015;-62
2022/09/14 08:06:17;;;;;;;;;;;;;;;26.82;69.99;99336.41;89359;1263;79679;-62
2022/09/14 08:08:27;;;;;;;;;;;;;;;26.62;68.05;99338.14;89339;1263;83178;-62
2022/09/14 08:10:36;;;;;;;;;;;;;;;26.42;68.16;99340.66;89301;1262;98562;-61
2022/09/14 08:12:49;;;;;;;;;;;;;;;26.96;67.44;99341.10;89358;1262;87895;-62
2022/09/14 08:14:57;;;;;;;;;;;;;;;27.50;66.75;99342.73;89323;1262;94897;-62
2022/09/14 08:17:09;;;;;;;;;;;;;;;27.72;64.75;99340.09;89313;1262;79491;-62
2022/09/14 08:19:19;;;;;;;;;;;;;;;27.18;63.72;99332.86;89296;1263;82790;-61
2022/09/14 08:21:28;;;;;;;;;;;;;;;26.25;63.15;99339.98;89255;1262;100096;-61
2022/09/14 08:23:35;;;;;;;;;;;;;;;25.81;63.57;99342.46;89297;1262;88657;-61
2022/09/14 08:25:42;;;;;;;;;;;;;;;25.51;62.34;99343.84;89231;1262;95588;-61
2022/09/14 08:27:52;;;;;;;;;;;;;;;24.92;62.46;99346.26;89249;1263;79152;-61
2022/09/14 08:30:00;;;;;;;;;;;;;;;24.30;62.51;99354.84;89243;1263;83216;-61
2022/09/14 08:32:11;;;;;;;;;;;;;;;23.78;63.13;99358.22;89248;1262;99560;-59
2022/09/14 08:34:20;;;;;;;;;;;;;;;23.88;63.91;99359.20;89268;1262;88879;-61
2022/09/14 08:36:31;;;;;;;;;;;;;;;23.71;63.36;99358.13;89016;1264;95041;-62
2022/09/14 08:38:38;;;;;;;;;;;;;;;23.89;63.74;99356.31;89235;1263;78852;-61
2022/09/14 08:40:47;;;;;;;;;;;;;;;24.53;64.17;99347.73;89269;1262;82170;-61
2022/09/14 08:42:57;;;;;;;;;;;;;;;25.28;63.70;99342.55;89262;1261;99205;-62
2022/09/14 08:45:06;;;;;;;;;;;;;;;25.22;62.32;99345.02;89294;1262;89069;-62
2022/09/14 08:47:17;;;;;;;;;;;;;;;24.88;61.49;99341.16;89270;1263;93547;-62
2022/09/14 08:49:38;;;;;;;;;;;;;;;25.11;61.98;99337.95;89297;1262;80716;-61
2022/09/14 08:51:45;;;;;;;;;;;;;;;25.23;61.40;99332.82;89262;1262;83320;-62
2022/09/14 08:53:55;;;;;;;;;;;;;;;25.12;61.53;99329.91;89280;1262;99693;-61
2022/09/14 08:56:10;;;;;;;;;;;;;;;25.93;61.77;99328.58;89271;1263;88483;-61
2022/09/14 08:58:30;;;;;;;;;;;;;;;26.41;60.30;99325.83;89278;1262;94552;-61
2022/09/14 09:00:41;;;;;;;;;;;;;;;25.78;59.48;99322.48;89305;1261;81124;-60
2022/09/14 09:03:24;;;;;;;;;;;;;;;25.21;59.07;99325.02;89294;1262;82111;-60
2022/09/14 09:05:40;;;;;;;;;;;;;;;24.61;59.08;99324.45;89336;1262;97899;-59
2022/09/14 09:07:55;;;;;;;;;;;;;;;23.97;59.50;99327.10;89315;1262;88841;-60
2022/09/14 09:10:04;;;;;;;;;;;;;;;23.44;59.88;99330.90;89336;1263;94838;-60
2022/09/14 09:12:15;;;;;;;;;;;;;;;22.99;60.13;99331.54;89263;1263;80768;-60
2022/09/14 09:14:30;;;;;;;;;;;;;;;22.54;60.82;99334.90;89311;1261;82679;-59
2022/09/14 09:16:39;;;;;;;;;;;;;;;22.22;61.04;99337.29;89258;1263;99479;-59
2022/09/14 09:18:49;;;;;;;;;;;;;;;21.96;61.42;99337.66;89039;1264;91242;-60
2022/09/14 09:21:00;;;;;;;;;;;;;;;21.91;61.90;99338.98;89288;1262;95099;-61
2022/09/14 09:23:12;;;;;;;;;;;;;;;21.87;62.15;99338.07;89251;1263;81032;-60
2022/09/14 09:25:26;;;;;;;;;;;;;;;21.80;62.53;99339.54;89284;1262;82848;-60
2022/09/14 09:27:33;;;;;;;;;;;;;;;21.68;62.55;99339.80;89237;1263;100277;-60
2022/09/14 09:29:41;;;;;;;;;;;;;;;21.46;62.97;99335.80;89293;1262;89117;-60
2022/09/14 09:31:53;;;;;;;;;;;;;;;21.47;63.27;99337.16;89296;1262;95009;-60
2022/09/14 09:34:01;;;;;;;;;;;;;;;21.69;63.54;99337.70;89303;1262;79026;-60
2022/09/14 09:36:13;;;;;;;;;;;;;;;21.80;63.04;99333.70;89287;1263;82986;-60
2022/09/14 09:38:26;;;;;;;;;;;;;;;21.69;63.26;99331.77;89271;1262;98678;-60
2022/09/14 09:40:38;;;;;;;;;;;;;;;21.62;63.23;99332.38;89319;1263;87872;-60
2022/09/14 09:43:12;;;;;;;;;;;;;;;21.52;63.28;99336.02;89285;1263;95079;-59
2022/09/14 09:45:22;;;;;;;;;;;;;;;21.60;63.27;99332.84;89287;1262;80020;-62
2022/09/14 09:47:32;;;;;;;;;;;;;;;21.62;63.44;99335.23;89297;1261;82310;-61
2022/09/14 09:49:41;;;;;;;;;;;;;;;21.62;63.49;99334.96;89378;1262;99039;-61
2022/09/14 09:51:51;;;;;;;;;;;;;;;21.37;62.88;99337.30;89347;1263;87279;-61
2022/09/14 09:54:03;;;;;;;;;;;;;;;21.35;63.06;99336.76;89329;1262;95592;-62
2022/09/14 09:56:16;;;;;;;;;;;;;;;21.52;63.15;99333.99;89255;1262;80347;-61
2022/09/14 09:58:29;;;;;;;;;;;;;;;21.66;63.15;99333.60;89298;1263;83269;-61
2022/09/14 10:00:37;;;;;;;;;;;;;;;21.76;63.29;99333.46;89266;1262;99993;-60
2022/09/14 10:02:44;;;;;;;;;;;;;;;21.91;62.89;99327.02;89284;1262;88184;-60
2022/09/14 10:05:03;;;;;;;;;;;;;;;22.00;62.82;99327.17;89299;1262;95584;-60
2022/09/14 10:07:20;;;;;;;;;;;;;;;22.13;62.57;99324.73;89269;1262;80006;-60
2022/09/14 10:09:28;;;;;;;;;;;;;;;22.21;62.51;99324.89;89279;1262;83108;-61
2022/09/14 10:11:37;;;;;;;;;;;;;;;22.20;62.43;99326.32;89255;1262;99795;-61
2022/09/14 10:13:47;;;;;;;;;;;;;;;22.27;62.11;99330.58;89307;1262;88866;-61
2022/09/14 10:15:54;;;;;;;;;;;;;;;22.32;62.16;99329.48;89288;1262;95465;-61
2022/09/14 10:18:14;;;;;;;;;;;;;;;22.38;60.99;99324.61;89264;1262;80795;-61
2022/09/14 10:20:27;;;;;;;;;;;;;;;22.42;59.06;99323.70;89307;1262;82582;-61
2022/09/14 10:22:39;;;;;;;;;;;;;;;22.36;60.37;99330.88;89294;1262;98704;-59
2022/09/14 10:24:55;;;;;;;;;;;;;;;22.31;60.73;99332.80;89341;1262;88691;-60
2022/09/14 10:27:25;;;;;;;;;;;;;;;22.27;60.50;99328.54;89289;1263;93232;-61
2022/09/14 10:29:38;;;;;;;;;;;;;;;22.06;60.32;99331.95;89315;1263;80480;-61
2022/09/14 10:31:46;;;;;;;;;;;;;;;21.75;60.55;99334.70;89318;1261;83547;-61
2022/09/14 10:33:56;;;;;;;;;;;;;;;21.45;60.36;99338.11;89311;1263;98308;-60
2022/09/14 10:36:10;;;;;;;;;;;;;;;21.08;60.42;99342.52;89374;1263;88774;-60
2022/09/14 10:38:29;;;;;;;;;;;;;;;20.89;61.00;99345.14;89304;1262;95004;-61
2022/09/14 10:40:46;;;;;;;;;;;;;;;20.80;61.40;99348.04;89290;1262;78835;-61
2022/09/14 10:43:05;;;;;;;;;;;;;;;20.77;61.85;99347.99;89326;1263;80887;-61
2022/09/14 10:45:27;;;;;;;;;;;;;;;20.72;62.12;99347.58;89337;1263;99697;-60
2022/09/14 10:47:50;;;;;;;;;;;;;;;20.83;62.34;99345.00;89284;1261;89353;-60
2022/09/14 10:50:10;;;;;;;;;;;;;;;20.97;62.23;99340.48;89290;1263;93858;-61
2022/09/14 10:52:24;;;;;;;;;;;;;;;20.96;62.27;99343.61;89287;1262;79541;-61
2022/09/14 10:54:52;;;;;;;;;;;;;;;20.91;62.22;99342.37;89331;1262;83087;-60
2022/09/14 10:57:13;;;;;;;;;;;;;;;20.92;62.25;99343.64;89276;1262;98056;-60
2022/09/14 10:59:31;;;;;;;;;;;;;;;20.89;62.01;99339.20;89320;1262;88213;-61
2022/09/14 11:02:03;;;;;;;;;;;;;;;20.84;62.12;99339.55;89268;1263;95509;-60
2022/09/14 11:04:23;;;;;;;;;;;;;;;20.77;62.47;99338.17;89290;1263;80516;-61
2022/09/14 11:06:42;;;;;;;;;;;;;;;20.77;62.45;99341.79;89283;1261;82686;-62
2022/09/14 11:08:53;;;;;;;;;;;;;;;20.72;62.25;99344.34;89300;1262;99894;-61
2022/09/14 11:11:16;;;;;;;;;;;;;;;20.58;62.32;99341.59;89275;1263;87637;-61
2022/09/14 11:13:37;;;;;;;;;;;;;;;20.54;62.63;99341.12;89289;1263;94665;-61
2022/09/14 11:15:53;;;;;;;;;;;;;;;20.47;62.81;99342.84;89288;1263;80738;-62
2022/09/14 11:18:10;;;;;;;;;;;;;;;20.43;62.40;99343.29;89312;1263;82164;-63
2022/09/14 11:20:33;;;;;;;;;;;;;;;20.55;62.30;99342.64;89041;1264;100973;-62
2022/09/14 11:22:49;;;;;;;;;;;;;;;20.74;62.26;99339.05;89336;1262;88618;-61